Time;durP1;ratioP1;P1;durP2;ratioP2;P2;SDS_P1;SDS_P2;PMS_P1;PMS_P2;Temp;Humidity;BMP_temperature;BMP_pressure;BME280_temperature;BME280_humidity;BME280_pressure;Samples;Min_cycle;Max_cycle;Signal;HPM_P1;HPM_P2
2022/12/11 00:01:58;;;;;;;0.00;0.00;;;;;;;-3.04;83.67;99630.56;6177077;23;20033;-78
2022/12/11 00:04:26;;;;;;;0.00;0.00;;;;;;;-2.97;82.48;99640.47;6174193;23;20012;-77
2022/12/11 00:07:02;;;;;;;0.10;0.10;;;;;;;-2.83;83.12;99658.25;6157014;23;20031;-78
2022/12/11 00:09:28;;;;;;;0.00;0.00;;;;;;;-2.79;82.59;99648.78;6171381;23;20005;-78
2022/12/11 00:11:53;;;;;;;0.00;0.00;;;;;;;-2.79;81.88;99638.09;6182318;23;19997;-78
2022/12/11 00:14:19;;;;;;;0.00;0.00;;;;;;;-2.66;81.85;99643.53;6156702;23;20020;-78
2022/12/11 00:16:49;;;;;;;0.10;0.10;;;;;;;-2.65;82.18;99639.00;6147174;23;20021;-78
2022/12/11 00:19:15;;;;;;;0.00;0.00;;;;;;;-2.72;81.64;99609.50;6177513;23;20024;-77
2022/12/11 00:21:47;;;;;;;0.00;0.00;;;;;;;-2.68;82.04;99624.16;6149951;23;20084;-78
2022/12/11 00:24:13;;;;;;;0.00;0.00;;;;;;;-2.69;81.78;99614.47;6178782;23;20005;-78
2022/12/11 00:26:38;;;;;;;0.05;0.05;;;;;;;-2.79;81.81;99592.59;6148331;23;20070;-79
2022/12/11 00:29:07;;;;;;;0.10;0.10;;;;;;;-2.60;81.43;99611.63;6153310;23;20013;-77
2022/12/11 00:31:33;;;;;;;0.10;0.10;;;;;;;-2.46;81.82;99626.72;6182454;23;20063;-78
2022/12/11 00:34:01;;;;;;;0.10;0.10;;;;;;;-2.43;81.74;99637.03;6187313;23;20024;-75
2022/12/11 00:36:26;;;;;;;0.05;0.05;;;;;;;-2.54;81.43;99629.56;6196255;23;20016;-78
2022/12/11 00:38:52;;;;;;;0.00;0.00;;;;;;;-2.56;81.31;99623.59;6168717;23;20096;-78
2022/12/11 00:41:19;;;;;;;0.00;0.00;;;;;;;-2.56;81.13;99626.25;6182739;23;20008;-78
2022/12/11 00:43:45;;;;;;;0.00;0.00;;;;;;;-2.64;82.00;99614.69;6176303;23;20009;-82
2022/12/11 00:46:11;;;;;;;0.10;0.10;;;;;;;-2.73;81.74;99597.19;6184204;23;20004;-78
2022/12/11 00:48:36;;;;;;;0.10;0.10;;;;;;;-2.76;81.47;99594.06;6170419;23;20013;-76
2022/12/11 00:51:02;;;;;;;0.10;0.10;;;;;;;-2.76;81.92;99599.41;6184050;23;20005;-81
2022/12/11 00:53:28;;;;;;;0.00;0.00;;;;;;;-2.86;81.44;99597.09;6158763;23;20005;-78
2022/12/11 00:55:53;;;;;;;0.00;0.00;;;;;;;-2.85;82.62;99607.63;6177174;23;20012;-76
2022/12/11 00:58:19;;;;;;;0.00;0.00;;;;;;;-2.91;81.85;99584.31;6176671;23;20001;-78
2022/12/11 01:00:47;;;;;;;0.00;0.00;;;;;;;-2.70;82.83;99618.19;6153142;23;20019;-76
2022/12/11 01:03:13;;;;;;;0.08;0.08;;;;;;;-2.66;82.32;99627.47;6176355;23;20017;-79
2022/12/11 01:05:39;;;;;;;0.00;0.00;;;;;;;-2.68;82.35;99616.13;6175273;23;20005;-76
2022/12/11 01:08:05;;;;;;;0.00;0.00;;;;;;;-2.71;82.30;99608.50;6173713;23;20451;-78
2022/12/11 01:10:33;;;;;;;0.10;0.10;;;;;;;-2.70;81.99;99615.50;6177156;23;20047;-77
2022/12/11 01:13:04;;;;;;;0.08;0.08;;;;;;;-2.75;82.33;99611.78;6143208;23;20249;-77
2022/12/11 01:15:33;;;;;;;0.10;0.10;;;;;;;-2.68;81.95;99629.50;6173273;23;20024;-78
2022/12/11 01:17:58;;;;;;;0.00;0.00;;;;;;;-2.74;81.62;99624.94;6172179;23;20004;-79
2022/12/11 01:20:27;;;;;;;0.00;0.00;;;;;;;-2.89;81.78;99609.03;6153233;23;20092;-77
2022/12/11 01:22:54;;;;;;;0.03;0.03;;;;;;;-2.96;81.32;99600.16;6169945;23;20060;-78
2022/12/11 01:25:19;;;;;;;0.00;0.00;;;;;;;-3.01;81.91;99608.78;6177279;23;20004;-78
2022/12/11 01:27:45;;;;;;;0.00;0.00;;;;;;;-2.96;81.81;99621.56;6176593;23;20028;-78
2022/12/11 01:30:13;;;;;;;0.10;0.10;;;;;;;-3.05;81.63;99612.84;6146741;23;20008;-77
2022/12/11 01:32:38;;;;;;;0.10;0.10;;;;;;;-3.08;81.30;99612.41;6176336;23;20451;-79
2022/12/11 01:35:06;;;;;;;0.00;0.00;;;;;;;-3.00;81.38;99626.44;6167719;23;20025;-77
2022/12/11 01:37:34;;;;;;;0.10;0.10;;;;;;;-3.15;82.26;99607.03;6150128;23;20697;-77
2022/12/11 01:40:07;;;;;;;0.00;0.00;;;;;;;-2.96;81.60;99618.03;6170606;23;20060;-77
2022/12/11 01:42:33;;;;;;;0.10;0.10;;;;;;;-3.16;81.42;99590.16;6153766;23;20038;-77
2022/12/11 01:45:23;;;;;;;0.10;0.10;;;;;;;-2.94;81.28;99618.69;6169638;23;20044;-77
2022/12/11 01:47:51;;;;;;;0.10;0.10;;;;;;;-3.10;81.82;99604.59;6179018;23;19997;-78
2022/12/11 01:50:17;;;;;;;0.00;0.00;;;;;;;-3.21;81.55;99581.91;6170467;23;20092;-80
2022/12/11 01:52:46;;;;;;;0.00;0.00;;;;;;;-3.14;81.86;99591.81;6174817;23;20092;-76
2022/12/11 01:55:16;;;;;;;0.10;0.10;;;;;;;-3.07;81.49;99590.81;6151363;23;20092;-78
2022/12/11 01:57:46;;;;;;;0.10;0.10;;;;;;;-3.01;81.75;99607.94;6149155;23;20012;-78
2022/12/11 02:00:12;;;;;;;0.00;0.00;;;;;;;-3.10;81.41;99593.88;6177524;23;20017;-77
2022/12/11 02:02:37;;;;;;;0.00;0.00;;;;;;;-3.09;81.28;99590.19;6172157;23;20087;-78
2022/12/11 02:05:04;;;;;;;0.10;0.10;;;;;;;-3.16;81.66;99579.44;6149606;23;20116;-78
2022/12/11 02:07:37;;;;;;;0.00;0.00;;;;;;;-3.08;81.36;99597.22;6177237;23;20016;-78
2022/12/11 02:10:04;;;;;;;0.00;0.00;;;;;;;-3.07;81.57;99593.47;6175753;23;20012;-77
2022/12/11 02:12:35;;;;;;;0.00;0.00;;;;;;;-3.00;81.22;99599.69;6149249;23;20023;-80
2022/12/11 02:15:25;;;;;;;0.00;0.00;;;;;;;-2.96;80.96;99593.94;6168251;23;20168;-76
2022/12/11 02:18:16;;;;;;;0.00;0.00;;;;;;;-2.95;81.07;99584.91;6171693;23;20116;-77
2022/12/11 02:20:58;;;;;;;0.00;0.00;;;;;;;-3.02;81.35;99585.72;6177202;23;20001;-77
2022/12/11 02:23:42;;;;;;;0.00;0.00;;;;;;;-3.08;80.92;99589.19;6168405;23;20012;-76
2022/12/11 02:26:08;;;;;;;0.10;0.10;;;;;;;-3.12;81.66;99585.25;6178165;23;20001;-78
2022/12/11 02:28:47;;;;;;;0.00;0.00;;;;;;;-3.17;81.34;99582.31;6163311;23;20008;-78
2022/12/11 02:31:23;;;;;;;0.10;0.10;;;;;;;-3.15;81.37;99585.63;6178335;23;20067;-79
2022/12/11 02:34:10;;;;;;;;;;;;;;;;;;;;;
2022/12/11 02:36:40;;;;;;;0.00;0.00;;;;;;;-3.22;81.32;99579.41;6174760;23;20380;-80
2022/12/11 02:39:11;;;;;;;0.00;0.00;;;;;;;-3.34;81.75;99569.28;6176018;23;20001;-79
2022/12/11 02:41:49;;;;;;;0.00;0.00;;;;;;;-3.42;81.30;99564.06;6173163;23;20047;-78
2022/12/11 02:44:20;;;;;;;0.00;0.00;;;;;;;-3.31;82.33;99577.91;6175047;23;20073;-78
2022/12/11 02:46:45;;;;;;;0.00;0.00;;;;;;;-3.51;82.28;99554.56;6171894;23;20005;-78
2022/12/11 02:49:12;;;;;;;0.00;0.00;;;;;;;-3.36;82.33;99595.38;6152309;23;20031;-79
2022/12/11 02:51:43;;;;;;;0.00;0.00;;;;;;;-3.34;81.95;99587.97;6174589;23;20032;-77
2022/12/11 02:54:19;;;;;;;0.10;0.10;;;;;;;-3.38;82.62;99570.69;6181586;23;20063;-77
2022/12/11 02:57:00;;;;;;;0.00;0.00;;;;;;;-3.43;81.93;99553.56;6176571;23;20016;-79
2022/12/11 02:59:34;;;;;;;0.00;0.00;;;;;;;-3.40;82.27;99561.19;6174594;23;20531;-79
2022/12/11 03:02:01;;;;;;;0.10;0.10;;;;;;;-3.53;82.62;99535.22;6175874;23;20624;-79
2022/12/11 03:04:43;;;;;;;;;;;;;;;;;;;;;
2022/12/11 03:07:22;;;;;;;0.10;0.10;;;;;;;-3.45;82.21;99547.59;6172890;23;20092;-77
2022/12/11 03:09:58;;;;;;;0.00;0.00;;;;;;;-3.58;82.51;99527.78;6176103;23;20020;-77
2022/12/11 03:12:39;;;;;;;0.00;0.00;;;;;;;-3.74;82.60;99512.03;6171812;23;20332;-78
2022/12/11 03:15:15;;;;;;;0.10;0.10;;;;;;;-3.75;82.07;99511.22;6175866;23;20001;-78
2022/12/11 03:17:56;;;;;;;0.00;0.00;;;;;;;-3.64;81.58;99517.06;6175910;23;20040;-78
2022/12/11 03:20:44;;;;;;;0.10;0.10;;;;;;;-3.45;82.41;99537.72;6171475;23;20336;-78
2022/12/11 03:23:26;;;;;;;0.00;0.00;;;;;;;-3.39;82.07;99554.84;6176363;23;20001;-78
2022/12/11 03:26:02;;;;;;;0.10;0.10;;;;;;;-3.53;82.43;99532.56;6172554;23;20037;-78
2022/12/11 03:28:42;;;;;;;0.00;0.00;;;;;;;-3.48;82.55;99538.13;6176927;23;20005;-77
2022/12/11 03:31:13;;;;;;;0.00;0.00;;;;;;;-3.59;81.85;99526.13;6172745;23;20001;-78
2022/12/11 03:33:44;;;;;;;0.00;0.00;;;;;;;-3.49;82.11;99538.31;6177248;23;20030;-77
2022/12/11 03:36:16;;;;;;;0.00;0.00;;;;;;;-3.56;81.99;99531.09;6173824;23;20403;-78
2022/12/11 03:38:57;;;;;;;0.00;0.00;;;;;;;-3.51;82.41;99544.69;6174617;23;20071;-77
2022/12/11 03:41:33;;;;;;;0.00;0.00;;;;;;;-3.66;81.92;99519.06;6172560;23;20040;-77
2022/12/11 03:44:01;;;;;;;0.00;0.00;;;;;;;-3.59;82.20;99519.94;6178032;23;20001;-78
2022/12/11 03:46:32;;;;;;;0.00;0.00;;;;;;;-3.59;82.59;99531.50;6146192;23;20005;-78
2022/12/11 03:49:04;;;;;;;0.00;0.00;;;;;;;-3.71;82.01;99517.84;6177055;23;20036;-77
2022/12/11 03:51:32;;;;;;;0.00;0.00;;;;;;;-3.68;82.06;99527.28;6175366;23;20028;-78
2022/12/11 03:53:58;;;;;;;0.10;0.10;;;;;;;-3.74;82.52;99515.56;6182128;23;20335;-77
2022/12/11 03:56:27;;;;;;;0.00;0.00;;;;;;;-3.76;82.53;99504.22;6174072;23;20368;-77
2022/12/11 03:58:53;;;;;;;0.00;0.00;;;;;;;-3.72;82.16;99502.00;6177879;23;20033;-77
2022/12/11 04:01:18;;;;;;;0.00;0.00;;;;;;;-3.58;82.02;99522.44;6177309;23;20005;-77
2022/12/11 04:03:44;;;;;;;0.00;0.00;;;;;;;-3.69;82.30;99505.09;6173123;23;20009;-77
2022/12/11 04:06:14;;;;;;;0.00;0.00;;;;;;;-3.72;81.86;99510.03;6180902;23;20089;-78
2022/12/11 04:08:39;;;;;;;0.00;0.00;;;;;;;-3.70;81.85;99530.16;6172696;23;20483;-78
2022/12/11 04:15:00;;;;;;;0.10;0.10;;;;;;;-3.92;82.39;99521.38;6173531;23;20019;-78
2022/12/11 04:16:34;;;;;;;0.10;0.10;;;;;;;-3.90;82.59;99518.50;6180861;23;20231;-78
2022/12/11 04:24:28;;;;;;;0.10;0.10;;;;;;;-3.88;82.81;99511.13;6180381;23;20071;-77
2022/12/11 04:26:53;;;;;;;0.00;0.00;;;;;;;-3.92;82.75;99516.03;6175603;23;20009;-78
2022/12/11 04:29:19;;;;;;;0.03;0.03;;;;;;;-3.90;82.46;99518.50;6153007;23;20009;-77
2022/12/11 04:31:44;;;;;;;0.00;0.00;;;;;;;-3.91;82.83;99512.34;6180731;23;20036;-78
2022/12/11 04:34:10;;;;;;;0.10;0.10;;;;;;;-4.12;83.00;99478.47;6175953;23;20459;-78
2022/12/11 04:36:36;;;;;;;0.03;0.03;;;;;;;-4.01;83.39;99484.34;6157209;23;21040;-78
2022/12/11 04:39:03;;;;;;;0.00;0.00;;;;;;;-3.93;83.34;99494.84;6152275;23;20021;-78
2022/12/11 04:41:29;;;;;;;0.10;0.10;;;;;;;-3.87;83.06;99497.59;6180890;23;20017;-77
2022/12/11 04:43:57;;;;;;;0.10;0.10;;;;;;;-3.88;82.80;99489.78;6178285;23;20005;-79
2022/12/11 04:46:23;;;;;;;0.10;0.10;;;;;;;-3.95;82.51;99472.88;6179983;23;20014;-79
2022/12/11 04:48:51;;;;;;;0.00;0.00;;;;;;;-3.74;82.75;99491.50;6179998;23;20036;-77
2022/12/11 04:51:17;;;;;;;0.10;0.10;;;;;;;-3.87;82.25;99470.88;6176714;23;20004;-77
2022/12/11 04:53:45;;;;;;;0.00;0.00;;;;;;;-3.71;82.61;99495.63;6180212;23;20016;-80
2022/12/11 04:56:13;;;;;;;0.10;0.10;;;;;;;-3.55;82.55;99505.19;6176244;23;20009;-78
2022/12/11 04:58:40;;;;;;;0.10;0.10;;;;;;;-3.65;82.63;99480.66;6183001;23;20031;-78
2022/12/11 05:01:10;;;;;;;0.10;0.10;;;;;;;-3.60;82.06;99486.25;6154845;23;20009;-77
2022/12/11 05:03:36;;;;;;;0.00;0.00;;;;;;;-3.72;82.37;99467.28;6176878;23;20005;-77
2022/12/11 05:06:04;;;;;;;0.10;0.10;;;;;;;-3.81;82.37;99457.75;6177594;23;20031;-77
2022/12/11 05:08:39;;;;;;;;;;;;;;;;;;;;;
2022/12/11 05:11:10;;;;;;;0.00;0.00;;;;;;;-3.91;82.08;99455.44;6181563;23;20072;-80
2022/12/11 05:13:36;;;;;;;0.10;0.10;;;;;;;-3.89;82.50;99466.75;6176795;23;20479;-79
2022/12/11 05:16:06;;;;;;;0.10;0.10;;;;;;;-4.01;82.28;99476.31;6180209;23;20032;-77
2022/12/11 05:18:35;;;;;;;0.00;0.00;;;;;;;-4.16;82.69;99463.88;6177102;23;20436;-79
2022/12/11 05:21:08;;;;;;;0.10;0.10;;;;;;;-4.34;82.49;99421.63;6154181;23;20096;-78
2022/12/11 05:23:34;;;;;;;0.10;0.10;;;;;;;-4.07;82.59;99475.25;6175255;23;20028;-79
2022/12/11 05:26:06;;;;;;;0.00;0.00;;;;;;;-4.05;82.55;99467.84;6178348;23;20474;-77
2022/12/11 05:29:07;;;;;;;;;;;;;;;;;;;;;
2022/12/11 05:31:31;;;;;;;0.00;0.00;;;;;;;-4.13;83.05;99454.63;6175824;23;20063;-77
2022/12/11 05:33:59;;;;;;;0.10;0.10;;;;;;;-3.95;83.10;99464.84;6174203;23;20385;-80
2022/12/11 05:36:55;;;;;;;;;;;;;;;;;;;;;
2022/12/11 05:39:20;;;;;;;0.10;0.10;;;;;;;-3.93;82.91;99447.63;6172917;23;20080;-79
2022/12/11 05:41:49;;;;;;;0.00;0.00;;;;;;;-3.70;82.82;99471.38;6155478;23;20037;-80
2022/12/11 05:44:24;;;;;;;0.00;0.00;;;;;;;-3.81;82.40;99447.06;6172417;23;20019;-77
2022/12/11 05:46:55;;;;;;;0.10;0.10;;;;;;;-3.75;82.83;99452.44;6156827;23;20370;-79
2022/12/11 05:49:24;;;;;;;0.10;0.10;;;;;;;-3.66;82.82;99460.28;6172828;23;20020;-77
2022/12/11 05:51:52;;;;;;;0.10;0.10;;;;;;;-3.58;82.58;99457.47;6178742;23;20083;-77
2022/12/11 05:54:25;;;;;;;0.00;0.00;;;;;;;-3.64;82.79;99444.91;6181137;23;20085;-79
2022/12/11 05:56:53;;;;;;;0.00;0.00;;;;;;;-3.72;82.47;99430.69;6181385;23;20020;-77
2022/12/11 05:59:21;;;;;;;0.00;0.00;;;;;;;-3.65;82.58;99443.25;6175474;23;20009;-78
2022/12/11 06:01:49;;;;;;;0.10;0.10;;;;;;;-3.72;82.41;99429.88;6196034;23;20013;-79
2022/12/11 06:04:14;;;;;;;0.08;0.08;;;;;;;-3.73;82.94;99434.34;6200862;23;19997;-79
2022/12/11 06:06:42;;;;;;;0.10;0.10;;;;;;;-3.64;82.56;99452.91;6198004;23;19993;-77
2022/12/11 06:09:15;;;;;;;0.10;0.10;;;;;;;-3.63;82.68;99444.69;6163581;23;20535;-75
2022/12/11 06:11:41;;;;;;;0.00;0.00;;;;;;;-3.64;82.88;99443.03;6175055;23;20063;-80
2022/12/11 06:14:10;;;;;;;0.10;0.10;;;;;;;-3.62;83.15;99441.00;6176125;23;20005;-80
2022/12/11 06:16:36;;;;;;;0.00;0.00;;;;;;;-3.58;82.96;99446.78;6180688;23;20016;-76
2022/12/11 06:19:02;;;;;;;0.00;0.00;;;;;;;-3.58;82.71;99444.09;6125560;23;20079;-75
2022/12/11 06:21:34;;;;;;;0.00;0.00;;;;;;;-3.50;83.00;99457.31;6177409;23;20064;-75
2022/12/11 06:24:02;;;;;;;0.00;0.00;;;;;;;-3.52;83.08;99459.34;6169715;23;20013;-77
2022/12/11 06:26:31;;;;;;;0.10;0.10;;;;;;;-3.65;82.43;99428.06;6179044;23;20420;-78
2022/12/11 06:28:59;;;;;;;0.10;0.10;;;;;;;-3.68;83.29;99420.41;6147915;23;20055;-79
2022/12/11 06:31:25;;;;;;;0.00;0.00;;;;;;;-3.61;83.25;99436.47;6175680;23;20084;-78
2022/12/11 06:33:50;;;;;;;0.00;0.00;;;;;;;-3.57;83.22;99437.75;6172525;23;20094;-77
2022/12/11 06:36:18;;;;;;;0.10;0.10;;;;;;;-3.64;83.37;99426.19;6152757;23;20067;-79
2022/12/11 06:38:43;;;;;;;0.00;0.00;;;;;;;-3.56;83.62;99434.88;6175721;23;20067;-78
2022/12/11 06:41:14;;;;;;;0.10;0.10;;;;;;;-3.61;83.15;99431.13;6147144;23;20424;-77
2022/12/11 06:43:41;;;;;;;0.00;0.00;;;;;;;-3.49;83.36;99455.47;6181278;23;20424;-78
2022/12/11 06:46:12;;;;;;;0.10;0.10;;;;;;;-3.49;82.70;99452.78;6174530;23;20005;-78
2022/12/11 06:48:41;;;;;;;0.10;0.10;;;;;;;-3.56;82.92;99440.22;6176621;23;20099;-77
2022/12/11 06:51:18;;;;;;;0.10;0.10;;;;;;;-3.52;83.11;99445.97;6172214;23;20012;-77
2022/12/11 06:53:53;;;;;;;0.00;0.00;;;;;;;-3.71;82.73;99445.69;6179225;23;20004;-78
2022/12/11 06:56:23;;;;;;;0.00;0.00;;;;;;;-3.81;82.82;99447.91;6172633;23;20084;-77
2022/12/11 06:58:55;;;;;;;0.10;0.10;;;;;;;-3.89;83.01;99440.03;6178530;23;20005;-77
2022/12/11 07:01:28;;;;;;;0.00;0.00;;;;;;;-3.77;82.84;99459.00;6172372;23;20416;-78
2022/12/11 07:03:55;;;;;;;0.00;0.00;;;;;;;-3.73;82.55;99455.75;6150942;23;20005;-77
2022/12/11 07:06:21;;;;;;;0.00;0.00;;;;;;;-3.59;82.88;99466.50;6176215;23;20087;-76
2022/12/11 07:08:49;;;;;;;0.10;0.10;;;;;;;-3.51;82.95;99458.31;6145240;23;20024;-76
2022/12/11 07:11:16;;;;;;;0.00;0.00;;;;;;;-3.46;82.94;99455.06;6178330;23;19997;-77
2022/12/11 07:13:42;;;;;;;0.10;0.10;;;;;;;-3.29;82.62;99460.91;6171294;23;20009;-77
2022/12/11 07:16:12;;;;;;;0.00;0.00;;;;;;;-3.32;82.77;99451.44;6176991;23;20379;-77
2022/12/11 07:18:40;;;;;;;0.10;0.10;;;;;;;-3.09;82.41;99459.13;6172691;23;20049;-75
2022/12/11 07:21:09;;;;;;;0.00;0.00;;;;;;;-3.10;82.43;99438.75;6179571;23;20005;-76
2022/12/11 07:23:41;;;;;;;0.10;0.10;;;;;;;-2.95;82.09;99451.13;6171490;23;20353;-76
2022/12/11 07:26:10;;;;;;;0.10;0.10;;;;;;;-2.80;82.56;99467.88;6152958;23;20005;-77
2022/12/11 07:28:48;;;;;;;0.00;0.00;;;;;;;-2.85;82.13;99454.25;6173883;23;19997;-76
2022/12/11 07:31:17;;;;;;;0.10;0.10;;;;;;;-2.68;82.80;99468.91;6176437;23;20001;-76
2022/12/11 07:33:46;;;;;;;0.00;0.00;;;;;;;-2.68;82.06;99457.38;6173615;23;20057;-76
2022/12/11 07:36:13;;;;;;;0.10;0.10;;;;;;;-2.67;82.01;99449.16;6175750;23;20059;-76
2022/12/11 07:38:50;;;;;;;;;;;;;;;;;;;;;
2022/12/11 07:41:16;;;;;;;0.00;0.00;;;;;;;-2.58;81.43;99447.09;6176237;23;20084;-77
2022/12/11 07:43:50;;;;;;;0.10;0.10;;;;;;;-2.37;81.66;99461.34;6177066;23;20028;-77
2022/12/11 07:46:21;;;;;;;0.10;0.10;;;;;;;-2.37;81.17;99455.97;6148102;23;20017;-76
2022/12/11 07:48:49;;;;;;;0.10;0.10;;;;;;;-2.34;81.93;99453.69;6176343;23;19997;-77
2022/12/11 07:51:34;;;;;;;0.00;0.00;;;;;;;-2.17;81.60;99469.38;6170640;23;20379;-76
2022/12/11 07:54:06;;;;;;;0.08;0.08;;;;;;;-2.14;82.09;99461.75;6176519;23;20008;-77
2022/12/11 07:56:32;;;;;;;0.10;0.10;;;;;;;-2.03;81.14;99470.19;6175308;23;20052;-77
2022/12/11 07:59:00;;;;;;;0.00;0.00;;;;;;;-2.04;81.72;99452.50;6152386;23;20013;-80
2022/12/11 08:01:27;;;;;;;0.00;0.00;;;;;;;-1.96;80.74;99461.13;6169491;23;20120;-77
2022/12/11 08:03:54;;;;;;;0.10;0.10;;;;;;;-1.84;81.79;99468.53;6152743;23;20008;-79
2022/12/11 08:06:25;;;;;;;0.10;0.10;;;;;;;-1.89;81.58;99449.59;6153319;23;20313;-77
2022/12/11 08:08:51;;;;;;;0.10;0.10;;;;;;;-1.85;81.58;99456.19;6173698;23;20006;-77
2022/12/11 08:11:17;;;;;;;0.00;0.00;;;;;;;-1.83;80.87;99448.75;6154109;23;20025;-77
2022/12/11 08:13:43;;;;;;;0.00;0.00;;;;;;;-1.92;81.11;99429.38;6126297;23;20019;-77
2022/12/11 08:16:15;;;;;;;0.00;0.00;;;;;;;-1.80;80.93;99443.78;6174163;23;20000;-78
2022/12/11 08:18:49;;;;;;;0.10;0.10;;;;;;;-1.84;80.84;99436.38;6172539;23;20012;-78
2022/12/11 08:21:19;;;;;;;0.10;0.10;;;;;;;-1.75;80.76;99461.94;6177918;23;20087;-79
2022/12/11 08:23:52;;;;;;;0.00;0.00;;;;;;;-1.73;81.48;99457.19;6174633;23;20009;-78
2022/12/11 08:26:33;;;;;;;;;;;;;;;;;;;;;
2022/12/11 08:29:02;;;;;;;0.00;0.00;;;;;;;-1.64;80.23;99463.13;6176918;23;20112;-79
2022/12/11 08:31:28;;;;;;;0.00;0.00;;;;;;;-1.70;80.69;99448.72;6179791;23;20120;-79
2022/12/11 08:33:56;;;;;;;0.10;0.10;;;;;;;-1.77;80.69;99438.03;6175523;23;20025;-80
2022/12/11 08:36:23;;;;;;;0.00;0.00;;;;;;;-1.74;81.04;99431.38;6177385;23;20517;-77
2022/12/11 08:38:53;;;;;;;0.05;0.05;;;;;;;-1.55;80.47;99447.66;6176861;23;20005;-76
2022/12/11 08:41:24;;;;;;;0.05;0.05;;;;;;;-1.36;79.79;99459.34;6178022;23;19997;-80
2022/12/11 08:43:56;;;;;;;0.00;0.00;;;;;;;-1.29;80.76;99466.31;6178522;23;20008;-81
2022/12/11 08:46:28;;;;;;;0.00;0.00;;;;;;;-1.24;80.98;99447.75;6177400;23;20005;-81
2022/12/11 08:48:54;;;;;;;0.10;0.10;;;;;;;-1.15;79.55;99451.00;6177152;23;20693;-80
2022/12/11 08:51:22;;;;;;;0.00;0.00;;;;;;;-1.17;79.56;99452.25;6179922;23;19997;-80
2022/12/11 08:53:48;;;;;;;0.00;0.00;;;;;;;-1.34;79.39;99431.28;6179582;23;20036;-79
2022/12/11 08:56:17;;;;;;;0.00;0.00;;;;;;;-1.17;79.98;99460.31;6171810;23;20655;-81
2022/12/11 08:58:46;;;;;;;0.10;0.10;;;;;;;-1.14;79.25;99447.31;6180482;23;19997;-75
2022/12/11 09:01:20;;;;;;;0.10;0.10;;;;;;;-1.03;79.70;99448.47;6179319;23;20009;-77
2022/12/11 09:03:49;;;;;;;0.10;0.10;;;;;;;-0.94;79.77;99449.88;6176740;23;20005;-79
2022/12/11 09:06:24;;;;;;;0.00;0.00;;;;;;;-1.04;79.01;99425.34;6177894;23;20039;-78
2022/12/11 09:08:51;;;;;;;0.00;0.00;;;;;;;-0.81;79.42;99453.53;6170639;23;20354;-78
2022/12/11 09:21:21;;;;;;;0.00;0.00;;;;;;;-0.86;80.23;99410.41;6146868;23;20534;-77
2022/12/11 09:23:46;;;;;;;0.00;0.00;;;;;;;-0.73;79.85;99435.31;6144569;23;20052;-79
2022/12/11 09:26:19;;;;;;;0.00;0.00;;;;;;;-0.59;79.43;99438.72;6139619;23;20029;-77
2022/12/11 09:29:04;;;;;;;0.10;0.10;;;;;;;-0.62;79.41;99428.41;6145139;23;20012;-78
2022/12/11 09:31:34;;;;;;;0.10;0.10;;;;;;;-0.68;80.01;99412.38;6141003;23;20004;-77
2022/12/11 09:34:10;;;;;;;0.00;0.00;;;;;;;-0.61;79.65;99413.13;6144592;23;20100;-79
2022/12/11 09:36:40;;;;;;;0.00;0.00;;;;;;;-0.58;79.76;99421.56;6095910;23;20112;-78
2022/12/11 09:39:07;;;;;;;0.00;0.00;;;;;;;-0.49;80.28;99443.63;6120188;23;20009;-78
2022/12/11 09:41:37;;;;;;;0.00;0.00;;;;;;;-0.46;80.73;99431.63;6147451;23;20013;-79
2022/12/11 09:44:32;;;;;;;0.10;0.10;;;;;;;-0.56;80.16;99419.47;6144832;23;20017;-75
2022/12/11 09:46:57;;;;;;;0.10;0.10;;;;;;;-0.52;80.10;99416.38;6180827;23;20097;-79
2022/12/11 09:49:23;;;;;;;0.00;0.00;;;;;;;-0.45;79.37;99444.00;6176976;23;20024;-78
2022/12/11 09:51:56;;;;;;;0.10;0.10;;;;;;;-0.62;80.46;99431.09;6172843;23;20025;-78
2022/12/11 09:54:23;;;;;;;0.10;0.10;;;;;;;-0.70;80.68;99426.00;6177234;23;20012;-78
2022/12/11 09:57:32;;;;;;;0.10;0.10;;;;;;;-0.71;80.43;99435.91;6148397;23;20011;-78
2022/12/11 10:00:27;;;;;;;0.00;0.00;;;;;;;-0.76;81.02;99459.91;6176901;23;20001;-79
2022/12/11 10:03:25;;;;;;;0.00;0.00;;;;;;;-1.02;80.61;99430.50;6136259;23;20009;-78
2022/12/11 10:06:12;;;;;;;0.00;0.00;;;;;;;-0.96;81.01;99443.09;6178055;23;20012;-77
2022/12/11 10:12:26;;;;;;;0.10;0.10;;;;;;;-0.68;81.72;99450.78;6097172;23;20019;-76
2022/12/11 10:15:13;;;;;;;0.10;0.10;;;;;;;-0.63;81.16;99415.22;6176889;23;20001;-77
2022/12/11 10:17:43;;;;;;;0.00;0.00;;;;;;;-0.36;80.24;99434.63;6175393;23;20039;-77
2022/12/11 10:20:08;;;;;;;0.10;0.10;;;;;;;0.04;79.90;99455.78;6169715;23;20005;-77
2022/12/11 10:22:34;;;;;;;0.00;0.00;;;;;;;0.30;79.10;99456.59;6173785;23;20009;-77
2022/12/11 10:25:18;;;;;;;0.00;0.00;;;;;;;0.34;79.38;99436.28;6174763;23;20036;-78
2022/12/11 10:27:44;;;;;;;0.00;0.00;;;;;;;0.43;78.58;99445.69;6175368;23;20024;-77
2022/12/11 10:30:23;;;;;;;0.10;0.10;;;;;;;0.54;77.73;99429.84;6175421;23;20226;-79
2022/12/11 10:33:10;;;;;;;0.00;0.00;;;;;;;0.85;77.34;99453.91;6177409;23;20001;-77
2022/12/11 10:35:44;;;;;;;0.00;0.00;;;;;;;0.97;77.21;99440.50;6168791;23;20396;-77
2022/12/11 10:38:15;;;;;;;0.10;0.10;;;;;;;0.96;76.64;99446.13;6178253;23;20004;-78
2022/12/11 10:40:45;;;;;;;0.00;0.00;;;;;;;0.81;77.07;99433.06;6161929;23;20643;-79
2022/12/11 10:43:11;;;;;;;0.05;0.05;;;;;;;0.60;76.68;99428.94;6177745;23;20011;-77
2022/12/11 10:45:39;;;;;;;0.00;0.00;;;;;;;0.52;77.71;99438.97;6172448;23;20032;-80
2022/12/11 10:48:12;;;;;;;0.00;0.00;;;;;;;0.47;77.39;99435.31;6174897;23;20365;-85
2022/12/11 10:50:54;;;;;;;;;;;;;;;;;;;;;
2022/12/11 10:53:21;;;;;;;0.00;0.00;;;;;;;0.36;77.21;99431.50;6181709;23;20084;-80
2022/12/11 10:55:58;;;;;;;0.00;0.00;;;;;;;0.40;77.20;99431.88;6127066;23;20009;-80
2022/12/11 10:58:52;;;;;;;0.00;0.00;;;;;;;0.28;76.68;99394.16;6182670;23;20031;-81
2022/12/11 11:02:01;;;;;;;;;;;;;;;;;;;;;
2022/12/11 11:04:34;;;;;;;0.00;0.00;;;;;;;0.89;76.64;99430.03;6186166;23;20077;-82
2022/12/11 11:07:20;;;;;;;0.00;0.00;;;;;;;0.82;76.07;99384.38;6177341;23;20013;-82
2022/12/11 11:10:13;;;;;;;0.00;0.00;;;;;;;1.04;76.23;99397.34;6183783;23;20008;-80
2022/12/11 11:13:15;;;;;;;0.00;0.00;;;;;;;1.32;76.60;99423.66;6179183;23;20005;-81
2022/12/11 11:15:41;;;;;;;0.00;0.00;;;;;;;1.33;75.40;99422.63;6155377;23;20001;-80
2022/12/11 11:18:18;;;;;;;0.00;0.00;;;;;;;1.51;75.26;99429.00;6138122;23;20005;-82
2022/12/11 11:20:49;;;;;;;0.00;0.00;;;;;;;1.51;75.57;99424.41;6185423;23;20088;-80
2022/12/11 11:23:20;;;;;;;0.10;0.10;;;;;;;1.63;75.25;99410.16;6178137;23;20009;-80
2022/12/11 11:26:07;;;;;;;0.00;0.00;;;;;;;1.87;75.04;99406.44;6155646;23;20364;-79
2022/12/11 11:28:40;;;;;;;0.00;0.00;;;;;;;2.40;74.84;99409.22;6183786;23;20012;-79
2022/12/11 11:31:18;;;;;;;0.00;0.00;;;;;;;4.99;73.09;99405.00;6179920;23;20004;-81
2022/12/11 11:34:02;;;;;;;0.03;0.03;;;;;;;7.12;65.65;99421.44;6176582;23;20005;-83
2022/12/11 11:36:30;;;;;;;0.00;0.00;;;;;;;8.11;62.16;99417.72;6178486;23;20083;-80
2022/12/11 11:39:22;;;;;;;0.00;0.00;;;;;;;8.64;61.61;99419.25;6175818;23;20005;-81
2022/12/11 11:41:53;;;;;;;0.00;0.00;;;;;;;10.59;57.35;99428.81;6179078;23;20013;-76
2022/12/11 11:44:28;;;;;;;0.00;0.00;;;;;;;13.15;50.82;99411.25;6172731;23;20009;-78
2022/12/11 11:47:04;;;;;;;0.00;0.00;;;;;;;13.01;50.75;99429.66;6177266;23;20013;-78
2022/12/11 11:49:48;;;;;;;0.00;0.00;;;;;;;11.86;52.39;99416.41;6175896;23;20052;-77
2022/12/11 11:52:32;;;;;;;0.00;0.00;;;;;;;12.26;53.18;99429.72;6175827;23;20336;-76
2022/12/11 11:55:08;;;;;;;0.00;0.00;;;;;;;13.10;51.02;99431.38;6177699;23;20011;-78
2022/12/11 11:58:01;;;;;;;0.00;0.00;;;;;;;14.59;47.25;99431.69;6172848;23;20005;-78
2022/12/11 12:00:31;;;;;;;0.00;0.00;;;;;;;15.37;45.48;99425.59;6177809;23;20001;-76
2022/12/11 12:03:18;;;;;;;0.00;0.00;;;;;;;16.16;44.26;99406.28;6174957;23;20012;-77
2022/12/11 12:06:06;;;;;;;0.00;0.00;;;;;;;19.48;39.15;99436.59;6178224;23;20004;-78
2022/12/11 12:09:01;;;;;;;0.00;0.00;;;;;;;22.19;35.24;99432.13;6171111;23;20001;-76
2022/12/11 12:11:26;;;;;;;0.00;0.00;;;;;;;22.66;34.63;99431.00;6130419;23;20005;-77
2022/12/11 12:14:14;;;;;;;0.00;0.00;;;;;;;23.97;32.45;99431.72;6168579;23;20005;-76
2022/12/11 12:17:08;;;;;;;;;;;;;;;;;;;;;
2022/12/11 12:19:51;;;;;;;0.00;0.00;;;;;;;19.19;36.14;99415.53;6179426;23;20076;-78
2022/12/11 12:22:42;;;;;;;0.00;0.00;;;;;;;17.43;38.74;99418.53;6171120;23;20000;-78
2022/12/11 12:25:44;;;;;;;0.00;0.00;;;;;;;15.32;40.89;99396.28;6172248;23;20001;-78
2022/12/11 12:28:28;;;;;;;0.00;0.00;;;;;;;13.67;42.79;99405.44;6176348;23;20183;-77
2022/12/11 12:31:00;;;;;;;0.00;0.00;;;;;;;12.83;44.49;99403.97;6173206;23;20016;-77
2022/12/11 12:34:04;;;;;;;0.00;0.00;;;;;;;12.38;45.45;99380.72;6179283;23;20301;-77